CAPE COD BAY, MA - 221

GPS Positions

GPS Time
Latitude
Degrees
Longitude
Degrees
Gap
 
Distance
NM
Speed
Knots
Direction
Degrees
Apr 19, 17:41 41.84860° -70.33012° 2 min 0.01 0.05
138°
Apr 19, 17:39 41.84862° -70.33015° 8 min 0.01 0.01
236°
Apr 19, 17:31 41.84863° -70.33012° 2 min 0.01 0.02
Apr 19, 17:29 41.84862° -70.33012° 8 min 0.01 0.01
90°
Apr 19, 17:21 41.84862° -70.33015° 2 min 0.01 0.04
236°
Apr 19, 17:19 41.84863° -70.33012° 8 min 0.01 0.00
Apr 19, 17:11 41.84863° -70.33012° 2 min 0.01 0.02
Apr 19, 17:09 41.84862° -70.33012° 8 min 0.01 0.01
270°
Apr 19, 17:01 41.84862° -70.33010° 2 min 0.01 0.02
180°
Apr 19, 16:59 41.84863° -70.33010° 8 min 0.01 0.01
56°
Apr 19, 16:51 41.84862° -70.33012° 2 min 0.01 0.03
270°
Apr 19, 16:49 41.84862° -70.33010° 8 min 0.01 0.01
180°
Apr 19, 16:41 41.84863° -70.33010° 2 min 0.01 0.00
Apr 19, 16:39 41.84863° -70.33010° 8 min 0.01 0.00
Apr 19, 16:31 41.84863° -70.33010° 2 min 0.01 0.03
90°
Apr 19, 16:29 41.84863° -70.33012° 8 min 0.01 0.01
Apr 19, 16:21 41.84862° -70.33012° 2 min 0.01 0.03
270°
Apr 19, 16:19 41.84862° -70.33010° 8 min 0.01 0.01
236°
Apr 19, 16:11 41.84863° -70.33008° 2 min 0.01 0.02
Apr 19, 16:09 41.84862° -70.33008° 8 min 0.01 0.01
270°
Apr 19, 16:01 41.84862° -70.33006° 2 min 0.01 0.02
180°
Apr 19, 15:59 41.84863° -70.33006° 7 min 0.01 0.01
45°
Apr 19, 15:51 41.84862° -70.33008° 2 min 0.01 0.00
Apr 19, 15:49 41.84862° -70.33008° 8 min 0.01 0.01
180°
Apr 19, 15:41 41.84863° -70.33008° 2 min 0.01 0.00
Apr 19, 15:39 41.84863° -70.33008° 8 min 0.01 0.01
270°
Apr 19, 15:31 41.84863° -70.33006° 2 min 0.01 0.00
Apr 19, 15:29 41.84863° -70.33006° 8 min 0.01 0.00
Apr 19, 15:21 41.84863° -70.33006° 2 min 0.01 0.04
180°
Apr 19, 15:19 41.84866° -70.33006° 8 min 0.01 0.01
270°
Apr 19, 15:11 41.84866° -70.33004° 2 min 0.01 0.00
Apr 19, 15:09 41.84866° -70.33004° 8 min 0.01 0.00
Apr 19, 15:01 41.84866° -70.33004° 2 min 0.01 0.00
Apr 19, 14:59 41.84866° -70.33004° 8 min 0.01 0.01
270°
Apr 19, 14:51 41.84866° -70.33002° 2 min 0.01 0.00
Apr 19, 14:49 41.84866° -70.33002° 8 min 0.01 0.01
180°
Apr 19, 14:41 41.84867° -70.33002° 2 min 0.01 0.04
304°
Apr 19, 14:39 41.84866° -70.32999° 8 min 0.01 0.00
Apr 19, 14:31 41.84866° -70.32999° 2 min 0.01 0.03
270°
Apr 19, 14:29 41.84866° -70.32997° 8 min 0.01 0.00
Apr 19, 14:21 41.84866° -70.32997° 2 min 0.01 0.02
180°
Apr 19, 14:19 41.84867° -70.32997° 8 min 0.01 0.01
Apr 19, 14:11 41.84866° -70.32997° 2 min 0.01 0.00
Apr 19, 14:09 41.84866° -70.32997° 28 min 0.01 0.00
270°
Apr 19, 13:41 41.84866° -70.32993° 2 min 0.01 0.00
Apr 19, 13:39 41.84866° -70.32993° 8 min 0.01 0.01
90°
Apr 19, 13:31 41.84866° -70.32996° 2 min 0.01 0.00
Apr 19, 13:29 41.84866° -70.32996° 8 min 0.01 0.00
Apr 19, 13:21 41.84866° -70.32996° 2 min 0.01 0.00
Apr 19, 13:19 41.84866° -70.32996° 8 min 0.01 0.00
Apr 19, 13:11 41.84866° -70.32996° 2 min 0.01 0.02
90°
Apr 19, 13:09 41.84866° -70.32997° 8 min 0.01 0.01
37°
Apr 19, 13:01 41.84863° -70.32999° 2 min 0.01 0.00
Apr 19, 12:59 41.84863° -70.32999° 8 min 0.01 0.01
56°
Apr 19, 12:51 41.84862° -70.33002° 2 min 0.01 0.03
90°
Apr 19, 12:49 41.84862° -70.33004° 8 min 0.01 0.02
Apr 19, 12:41 41.84857° -70.33004° 2 min 0.00 0.04
124°
Apr 19, 12:39 41.84858° -70.33006° 8 min 0.01 0.01
20°
Apr 19, 12:31 41.84855° -70.33008° 2 min 0.00 0.00
Apr 19, 12:29 41.84855° -70.33008° 8 min 0.00 0.02
342°
Apr 19, 12:21 41.84851° -70.33006° 2 min 0.00 0.00
Apr 19, 12:19 41.84851° -70.33006° 8 min 0.00 0.01
45°
Apr 19, 12:11 41.84850° -70.33008° 2 min 0.00 0.04
329°
Apr 19, 12:09 41.84848° -70.33006° 8 min 0.00 0.02
18°
Apr 19, 12:01 41.84845° -70.33008° 2 min 0.00 0.04
180°
Apr 19, 11:59 41.84847° -70.33008° 8 min 0.00 0.01
Apr 19, 11:51 41.84845° -70.33008° 2 min 0.00 0.03
90°
Apr 19, 11:49 41.84845° -70.33010° 8 min 0.01 0.01
90°
Apr 19, 11:41 41.84845° -70.33012° 2 min 0.01 0.03
270°
Apr 19, 11:39 41.84845° -70.33010° 8 min 0.01 0.01
Apr 19, 11:31 41.84843° -70.33010° 2 min 0.01 0.02
Apr 19, 11:29 41.84842° -70.33010° 8 min 0.01 0.01
180°
Apr 19, 11:21 41.84843° -70.33010° 2 min 0.01 0.00
Apr 19, 11:19 41.84843° -70.33010° 8 min 0.01 0.01
Apr 19, 11:11 41.84842° -70.33010° 2 min 0.01 0.04
236°
Apr 19, 11:09 41.84843° -70.33008° 8 min 0.01 0.01
90°
Apr 19, 11:01 41.84843° -70.33010° 2 min 0.01 0.00
Apr 19, 10:59 41.84843° -70.33010° 8 min 0.01 0.00
Apr 19, 10:51 41.84843° -70.33010° 1 min 0.01 0.03
270°
Apr 19, 10:49 41.84843° -70.33008° 8 min 0.01 0.01
90°
Apr 19, 10:41 41.84843° -70.33010° 2 min 0.01 0.00
Apr 19, 10:39 41.84843° -70.33010° 8 min 0.01 0.00
Apr 19, 10:31 41.84843° -70.33010° 2 min 0.01 0.02
Apr 19, 10:29 41.84842° -70.33010° 8 min 0.01 0.01
124°
Apr 19, 10:21 41.84843° -70.33012° 2 min 0.01 0.03
180°
Apr 19, 10:19 41.84845° -70.33012° 8 min 0.01 0.01
90°
Apr 19, 10:11 41.84845° -70.33015° 2 min 0.01 0.00
Apr 19, 10:09 41.84845° -70.33015° 8 min 0.01 0.01
Apr 19, 10:01 41.84843° -70.33015° 2 min 0.01 0.00
Apr 19, 09:59 41.84843° -70.33015° 8 min 0.01 0.00
Apr 19, 09:51 41.84843° -70.33015° 2 min 0.01 0.00
Apr 19, 09:49 41.84843° -70.33015° 8 min 0.01 0.00
Apr 19, 09:41 41.84843° -70.33015° 2 min 0.01 0.02
Apr 19, 09:39 41.84842° -70.33015° 8 min 0.01 0.01
180°
Apr 19, 09:31 41.84843° -70.33015° 2 min 0.01 0.00
Apr 19, 09:29 41.84843° -70.33015° 8 min 0.01 0.01
Apr 19, 09:21 41.84842° -70.33015° 2 min 0.01 0.00
Apr 19, 09:19 41.84842° -70.33015° 8 min 0.01 0.00
Apr 19, 09:11 41.84842° -70.33015° 2 min 0.01 0.02
180°
Apr 19, 09:09 41.84843° -70.33015° 8 min 0.01 0.01
Apr 19, 09:01 41.84842° -70.33015° 2 min 0.01 0.00
Apr 19, 08:59 41.84842° -70.33015° 8 min 0.01 0.01
90°
Apr 19, 08:51 41.84842° -70.33017° 2 min 0.01 0.02
180°
Apr 19, 08:49 41.84843° -70.33017° 8 min 0.01 0.00
Apr 19, 08:41 41.84843° -70.33017° 2 min 0.01 0.00
Apr 19, 08:39 41.84843° -70.33017° 8 min 0.01 0.01
90°
Apr 19, 08:31 41.84843° -70.33019° 2 min 0.01 0.04
304°
Apr 19, 08:29 41.84842° -70.33017° 8 min 0.01 0.01
124°
Apr 19, 08:21 41.84843° -70.33019° 2 min 0.01 0.03
270°
Apr 19, 08:19 41.84843° -70.33017° 8 min 0.01 0.02
158°
Apr 19, 08:11 41.84847° -70.33019° 2 min 0.01 0.00
Apr 19, 08:09 41.84847° -70.33019° 8 min 0.01 0.01
26°
Apr 19, 08:01 41.84845° -70.33021° 2 min 0.01 0.07
198°
Apr 19, 07:59 41.84848° -70.33019° 8 min 0.01 0.00
Apr 19, 07:51 41.84848° -70.33019° 2 min 0.01 0.00
Apr 19, 07:49 41.84848° -70.33019° 8 min 0.01 0.00
Apr 19, 07:41 41.84848° -70.33019° 2 min 0.01 0.02
90°
Apr 19, 07:39 41.84848° -70.33021° 8 min 0.01 0.01
180°
Apr 19, 07:31 41.84851° -70.33021° 2 min 0.01 0.00
Apr 19, 07:29 41.84851° -70.33021° 8 min 0.01 0.00
Apr 19, 07:21 41.84851° -70.33021° 2 min 0.01 0.00
Apr 19, 07:19 41.84851° -70.33021° 8 min 0.01 0.01
180°
Apr 19, 07:11 41.84854° -70.33021° 2 min 0.01 0.04
Apr 19, 07:09 41.84851° -70.33021° 8 min 0.01 0.01
180°
Apr 19, 07:01 41.84854° -70.33021° 2 min 0.01 0.02
180°
Apr 19, 06:59 41.84855° -70.33021° 8 min 0.01 0.01
180°
Apr 19, 06:51 41.84857° -70.33021° 2 min 0.01 0.00
Apr 19, 06:49 41.84857° -70.33021° 8 min 0.01 0.01
Apr 19, 06:41 41.84855° -70.33021° 2 min 0.01 0.03
180°
Apr 19, 06:39 41.84857° -70.33021° 8 min 0.01 0.01
270°
Apr 19, 06:31 41.84857° -70.33019° 2 min 0.01 0.02
180°
Apr 19, 06:29 41.84858° -70.33019° 8 min 0.01 0.00
Apr 19, 06:21 41.84858° -70.33019° 2 min 0.01 0.03
270°
Apr 19, 06:19 41.84858° -70.33017° 8 min 0.01 0.00
Apr 19, 06:11 41.84858° -70.33017° 2 min 0.01 0.00
Apr 19, 06:09 41.84858° -70.33017° 7 min 0.01 0.01
270°
Apr 19, 06:01 41.84858° -70.33015° 2 min 0.01 0.00
Apr 19, 05:59 41.84858° -70.33015° 8 min 0.01 0.01
180°
Apr 19, 05:51 41.84860° -70.33015° 2 min 0.01 0.00
Apr 19, 05:49 41.84860° -70.33015° 7 min 0.01 0.00
Apr 19, 05:41 41.84860° -70.33015° 2 min 0.01 0.00
Apr 19, 05:39 41.84860° -70.33015° 8 min 0.01 0.00
Apr 19, 05:31 41.84860° -70.33015° 1 min 0.01 0.00
Apr 19, 05:29 41.84860° -70.33015° 8 min 0.01 0.01
180°
Apr 19, 05:21 41.84862° -70.33015° 2 min 0.01 0.03
Apr 19, 05:19 41.84860° -70.33015° 8 min 0.01 0.01
222°
Apr 19, 05:11 41.84862° -70.33012° 2 min 0.01 0.00
Apr 19, 05:09 41.84862° -70.33012° 8 min 0.01 0.01
124°
Apr 19, 05:01 41.84863° -70.33015° 2 min 0.01 0.00
Apr 19, 04:59 41.84863° -70.33015° 8 min 0.01 0.01
270°
Apr 19, 04:51 41.84863° -70.33012° 2 min 0.01 0.00
Apr 19, 04:49 41.84863° -70.33012° 8 min 0.01 0.01
90°
Apr 19, 04:41 41.84863° -70.33015° 2 min 0.01 0.00
Apr 19, 04:39 41.84863° -70.33015° 8 min 0.01 0.00
Apr 19, 04:31 41.84863° -70.33015° 2 min 0.01 0.00
Apr 19, 04:29 41.84863° -70.33015° 8 min 0.01 0.00
Apr 19, 04:21 41.84863° -70.33015° 2 min 0.01 0.00
Apr 19, 04:19 41.84863° -70.33015° 8 min 0.01 0.01
Apr 19, 04:11 41.84862° -70.33015° 2 min 0.01 0.00
Apr 19, 04:09 41.84862° -70.33015° 8 min 0.01 0.01
180°
Apr 19, 04:01 41.84863° -70.33015° 2 min 0.01 0.00
Apr 19, 03:59 41.84863° -70.33015° 8 min 0.01 0.00
Apr 19, 03:51 41.84863° -70.33015° 2 min 0.01 0.02
Apr 19, 03:49 41.84862° -70.33015° 8 min 0.01 0.00
Apr 19, 03:41 41.84862° -70.33015° 2 min 0.01 0.00
Apr 19, 03:39 41.84862° -70.33015° 8 min 0.01 0.01
Apr 19, 03:31 41.84860° -70.33015° 2 min 0.01 0.03
90°
Apr 19, 03:29 41.84860° -70.33017° 8 min 0.01 0.01
323°
Apr 19, 03:21 41.84858° -70.33015° 2 min 0.01 0.00
Apr 19, 03:19 41.84858° -70.33015° 8 min 0.01 0.00
Apr 19, 03:11 41.84858° -70.33015° 2 min 0.01 0.00
Apr 19, 03:09 41.84858° -70.33015° 8 min 0.01 0.01
180°
Apr 19, 03:01 41.84860° -70.33015° 2 min 0.01 0.04
Apr 19, 02:59 41.84858° -70.33015° 8 min 0.01 0.00
Apr 19, 02:51 41.84858° -70.33015° 2 min 0.01 0.02
Apr 19, 02:49 41.84857° -70.33015° 8 min 0.01 0.01
42°
Apr 19, 02:41 41.84855° -70.33017° 2 min 0.01 0.00
Apr 19, 02:39 41.84855° -70.33017° 8 min 0.01 0.00
Apr 19, 02:31 41.84855° -70.33017° 2 min 0.01 0.00
Apr 19, 02:29 41.84855° -70.33017° 8 min 0.01 0.01
Apr 19, 02:21 41.84854° -70.33017° 2 min 0.01 0.03
270°
Apr 19, 02:19 41.84854° -70.33015° 8 min 0.01 0.00
Apr 19, 02:11 41.84854° -70.33015° 2 min 0.01 0.05
37°
Apr 19, 02:09 41.84851° -70.33017° 8 min 0.01 0.00
Apr 19, 02:01 41.84851° -70.33017° 2 min 0.01 0.03
270°
Apr 19, 01:59 41.84851° -70.33015° 8 min 0.01 0.00
Apr 19, 01:51 41.84851° -70.33015° 2 min 0.01 0.03
90°
Apr 19, 01:49 41.84851° -70.33017° 8 min 0.01 0.01
Apr 19, 01:41 41.84850° -70.33017° 2 min 0.01 0.00
Apr 19, 01:39 41.84850° -70.33017° 8 min 0.01 0.01
180°
Apr 19, 01:31 41.84851° -70.33017° 2 min 0.01 0.05
Apr 19, 01:29 41.84848° -70.33017° 8 min 0.01 0.01
304°
Apr 19, 01:21 41.84847° -70.33015° 2 min 0.01 0.03
90°
Apr 19, 01:19 41.84847° -70.33017° 8 min 0.01 0.01
270°
Apr 19, 01:11 41.84847° -70.33015° 2 min 0.01 0.04
124°
Apr 19, 01:09 41.84848° -70.33017° 8 min 0.01 0.02
334°
Apr 19, 01:01 41.84845° -70.33015° 2 min 0.01 0.00
Apr 19, 00:59 41.84845° -70.33015° 8 min 0.01 0.01
Apr 19, 00:51 41.84842° -70.33015° 2 min 0.01 0.03
270°
Apr 19, 00:49 41.84842° -70.33012° 8 min 0.01 0.01
323°
Apr 19, 00:41 41.84840° -70.33010° 1 min 0.01 0.03
90°
Apr 19, 00:39 41.84840° -70.33012° 8 min 0.01 0.01
304°
Apr 19, 00:31 41.84838° -70.33010° 2 min 0.01 0.00
Apr 19, 00:29 41.84838° -70.33010° 8 min 0.01 0.02
304°
Apr 19, 00:21 41.84837° -70.33006° 2 min 0.01 0.03
180°
Apr 19, 00:19 41.84838° -70.33006° 8 min 0.01 0.01
Apr 19, 00:11 41.84835° -70.33006° 2 min 0.01 0.00
Apr 19, 00:09 41.84835° -70.33006° 8 min 0.01 0.00
Apr 19, 00:01 41.84835° -70.33006° 2 min 0.01 0.05
323°
Apr 18, 23:59 41.84833° -70.33004° 8 min 0.01 0.02
236°
Apr 18, 23:51 41.84835° -70.32999° 2 min 0.01 0.04
Apr 18, 23:49 41.84833° -70.32999° 8 min 0.01 0.00
Apr 18, 23:41 41.84833° -70.32999° 2 min 0.01 0.00
Apr 18, 23:39 41.84833° -70.32999° 8 min 0.01 0.01
270°
Apr 18, 23:31 41.84833° -70.32996° 2 min 0.01 0.03
294°
Apr 18, 23:29 41.84832° -70.32993° 8 min 0.01 0.01
246°
Apr 18, 23:21 41.84833° -70.32991° 2 min 0.01 0.03
90°
Apr 18, 23:19 41.84833° -70.32993° 8 min 0.01 0.00
Apr 18, 23:11 41.84833° -70.32993° 2 min 0.01 0.01
Apr 18, 23:09 41.84832° -70.32993° 8 min 0.01 0.00
180°
Apr 18, 23:01 41.84833° -70.32993° 2 min 0.01 0.00
Apr 18, 22:59 41.84833° -70.32993° 8 min 0.01 0.01
66°
Apr 18, 22:51 41.84832° -70.32996° 2 min 0.01 0.01
180°
Apr 18, 22:49 41.84833° -70.32996° 8 min 0.01 0.00
Apr 18, 22:41 41.84832° -70.32996° 2 min 0.01 0.04
Apr 18, 22:39 41.84830° -70.32996° 8 min 0.01 0.01
180°
Apr 18, 22:31 41.84832° -70.32996° 2 min 0.01 0.02
90°
Apr 18, 22:29 41.84832° -70.32997° 8 min 0.01 0.01
Apr 18, 22:21 41.84830° -70.32997° 2 min 0.01 0.03
90°
Apr 18, 22:19 41.84830° -70.32999° 8 min 0.01 0.01
180°
Apr 18, 22:11 41.84832° -70.32999° 2 min 0.01 0.00
Apr 18, 22:09 41.84832° -70.32999° 8 min 0.01 0.00
Apr 18, 22:01 41.84832° -70.32999° 2 min 0.01 0.03
90°
Apr 18, 21:59 41.84832° -70.33002° 8 min 0.01 0.01
246°
Apr 18, 21:51 41.84833° -70.32999° 2 min 0.01 0.01
Apr 18, 21:49 41.84832° -70.32999° 8 min 0.01 0.01
114°
Apr 18, 21:41 41.84833° -70.33002° 2 min 0.01 0.03
90°
Apr 18, 21:39 41.84833° -70.33004° 8 min 0.01 0.01
90°
Apr 18, 21:31 41.84833° -70.33006° 2 min 0.01 0.00
Apr 18, 21:29 41.84833° -70.33006° 8 min 0.01 0.01
180°
Apr 18, 21:21 41.84835° -70.33006° 2 min 0.01 0.00
Apr 18, 21:19 41.84835° -70.33006° 8 min 0.01 0.01
90°
Apr 18, 21:11 41.84835° -70.33010° 2 min 0.01 0.05
323°
Apr 18, 21:09 41.84833° -70.33008° 8 min 0.01 0.01
270°
Apr 18, 21:01 41.84833° -70.33006° 2 min 0.01 0.02
90°
Apr 18, 20:59 41.84833° -70.33008° 8 min 0.01 0.00
Apr 18, 20:51 41.84833° -70.33008° 2 min 0.01 0.04
180°
Apr 18, 20:49 41.84835° -70.33008° 8 min 0.01 0.01
90°
Apr 18, 20:41 41.84835° -70.33010° 2 min 0.01 0.00
Apr 18, 20:39 41.84835° -70.33010° 8 min 0.01 0.01
124°
Apr 18, 20:31 41.84837° -70.33012° 2 min 0.01 0.05
138°
Apr 18, 20:29 41.84838° -70.33015° 8 min 0.01 0.01
180°
Apr 18, 20:21 41.84840° -70.33015° 2 min 0.01 0.00
Apr 18, 20:19 41.84840° -70.33015° 8 min 0.01 0.01
90°
Apr 18, 20:11 41.84840° -70.33017° 2 min 0.01 0.04
180°
Apr 18, 20:09 41.84842° -70.33017° 8 min 0.01 0.01
180°
Apr 18, 20:01 41.84843° -70.33017° 2 min 0.01 0.03
270°
Apr 18, 19:59 41.84843° -70.33015° 8 min 0.01 0.01
138°
Apr 18, 19:51 41.84845° -70.33017° 2 min 0.01 0.00
Apr 18, 19:49 41.84845° -70.33017° 8 min 0.01 0.01
90°
Apr 18, 19:41 41.84845° -70.33019° 2 min 0.01 0.04
180°
Apr 18, 19:39 41.84847° -70.33019° 8 min 0.01 0.01
180°
Apr 18, 19:31 41.84848° -70.33019° 1 min 0.01 0.02
90°
Apr 18, 19:29 41.84848° -70.33021° 8 min 0.01 0.01
200°
Apr 18, 19:21 41.84851° -70.33019° 2 min 0.01 0.05
217°
Apr 18, 19:19 41.84854° -70.33017° 8 min 0.01 0.01
124°
Apr 18, 19:11 41.84855° -70.33019° 2 min 0.01 0.04
149°
Apr 18, 19:09 41.84857° -70.33021° 8 min 0.01 0.01
248°
Apr 18, 19:01 41.84858° -70.33017° 2 min 0.01 0.03
270°
Apr 18, 18:59 41.84858° -70.33015° 8 min 0.01 0.02
180°
Apr 18, 18:51 41.84862° -70.33015° 2 min 0.01 0.00
Apr 18, 18:49 41.84862° -70.33015° 8 min 0.01 0.01
270°
Apr 18, 18:41 41.84862° -70.33012° 2 min 0.01 0.03
90°
Apr 18, 18:39 41.84862° -70.33015° 8 min 0.01 0.02
251°
Apr 18, 18:31 41.84863° -70.33010° 2 min 0.01 0.02
Apr 18, 18:29 41.84862° -70.33010° 8 min 0.01 0.01
90°
Apr 18, 18:21 41.84862° -70.33012° 2 min 0.01 0.03
Apr 18, 18:19 41.84860° -70.33012° 8 min 0.01 0.00
Apr 18, 18:11 41.84860° -70.33012° 2 min 0.01 0.03
180°
Apr 18, 18:09 41.84862° -70.33012° 8 min 0.01 0.00
Apr 18, 18:01 41.84862° -70.33012° 2 min 0.01 0.00
Apr 18, 17:59 41.84862° -70.33012° 8 min 0.01 0.01
236°
Apr 18, 17:51 41.84863° -70.33010° 2 min 0.01 0.00
Apr 18, 17:49 41.84863° -70.33010° 8 min 0.01 0.01
270°
Apr 18, 17:41 41.84863° -70.33008° 2 min 0.01 0.05
143°
Apr 18, 17:39 41.84866° -70.33010° 8 min 0.01 0.01
270°
Apr 18, 17:31 41.84866° -70.33008° 2 min 0.01 0.00
Apr 18, 17:29 41.84866° -70.33008° 8 min 0.01 0.00
Apr 18, 17:21 41.84866° -70.33008° 2 min 0.01 0.03
90°
Apr 18, 17:19 41.84866° -70.33010° 8 min 0.01 0.01
248°
Apr 18, 17:11 41.84867° -70.33006° 2 min 0.01 0.02
90°
Apr 18, 17:09 41.84867° -70.33008° 8 min 0.01 0.00
Apr 18, 17:01 41.84867° -70.33008° 2 min 0.01 0.03
315°
Apr 18, 16:59 41.84866° -70.33006° 8 min 0.01 0.01
180°
Apr 18, 16:51 41.84867° -70.33006° 2 min 0.01 0.02
Apr 18, 16:49 41.84866° -70.33006° 8 min 0.01 0.01
180°
Apr 18, 16:41 41.84867° -70.33006° 2 min 0.01 0.00
Apr 18, 16:39 41.84867° -70.33006° 8 min 0.01 0.00
Apr 18, 16:31 41.84867° -70.33006° 2 min 0.01 0.00
Apr 18, 16:29 41.84867° -70.33006° 8 min 0.01 0.01
90°
Apr 18, 16:21 41.84867° -70.33010° 2 min 0.01 0.00
Apr 18, 16:19 41.84867° -70.33010° 8 min 0.01 0.01
270°
Apr 18, 16:11 41.84867° -70.33008° 2 min 0.01 0.03
315°
Apr 18, 16:09 41.84866° -70.33006° 8 min 0.01 0.01
90°
Apr 18, 16:01 41.84866° -70.33010° 2 min 0.01 0.00
Apr 18, 15:59 41.84866° -70.33010° 8 min 0.01 0.00
Apr 18, 15:51 41.84866° -70.33010° 2 min 0.01 0.00
Apr 18, 15:49 41.84866° -70.33010° 8 min 0.01 0.00
Apr 18, 15:41 41.84866° -70.33010° 2 min 0.01 0.00
Apr 18, 15:39 41.84866° -70.33010° 8 min 0.01 0.00
Apr 18, 15:31 41.84866° -70.33010° 2 min 0.01 0.05
323°
Apr 18, 15:29 41.84863° -70.33008° 8 min 0.01 0.01
143°
Apr 18, 15:21 41.84866° -70.33010° 2 min 0.01 0.04
Apr 18, 15:19 41.84863° -70.33010° 8 min 0.01 0.01
143°
Apr 18, 15:11 41.84866° -70.33012° 2 min 0.01 0.00
Apr 18, 15:09 41.84866° -70.33012° 8 min 0.01 0.01
Apr 18, 15:01 41.84863° -70.33012° 2 min 0.01 0.00
Apr 18, 14:59 41.84863° -70.33012° 8 min 0.01 0.01
180°
Apr 18, 14:51 41.84866° -70.33012° 2 min 0.01 0.00
Apr 18, 14:49 41.84866° -70.33012° 8 min 0.01 0.01
270°
Apr 18, 14:41 41.84866° -70.33010° 2 min 0.01 0.03
90°
Apr 18, 14:39 41.84866° -70.33012° 8 min 0.01 0.01
Apr 18, 14:31 41.84863° -70.33012° 2 min 0.01 0.00
Apr 18, 14:29 41.84863° -70.33012° 8 min 0.01 0.00
Apr 18, 14:21 41.84863° -70.33012° 1 min 0.01 0.00
Apr 18, 14:19 41.84863° -70.33012° 8 min 0.01 0.01
56°
Apr 18, 14:11 41.84862° -70.33015° 2 min 0.01 0.00
Apr 18, 14:09 41.84862° -70.33015° 8 min 0.01 0.01
Apr 18, 14:01 41.84860° -70.33015° 2 min 0.01 0.00
Apr 18, 13:59 41.84860° -70.33015° 8 min 0.01 0.00
Apr 18, 13:51 41.84860° -70.33015° 2 min 0.01 0.00
Apr 18, 13:49 41.84860° -70.33015° 8 min 0.01 0.01
Apr 18, 13:41 41.84858° -70.33015° 2 min 0.01 0.04
180°
Apr 18, 13:39 41.84860° -70.33015° 8 min 0.01 0.00
Apr 18, 13:31 41.84860° -70.33015° 2 min 0.01 0.00
Apr 18, 13:29 41.84860° -70.33015° 8 min 0.01 0.01
Apr 18, 13:21 41.84858° -70.33015° 2 min 0.01 0.04
180°
Apr 18, 13:19 41.84860° -70.33015° 8 min 0.01 0.01
Apr 18, 13:11 41.84858° -70.33015° 2 min 0.01 0.04
180°
Apr 18, 13:09 41.84860° -70.33015° 8 min 0.01 0.01
Apr 18, 13:01 41.84858° -70.33015° 2 min 0.01 0.00
Apr 18, 12:59 41.84858° -70.33015° 8 min 0.01 0.01
Apr 18, 12:51 41.84857° -70.33015° 2 min 0.01 0.00
Apr 18, 12:49 41.84857° -70.33015° 8 min 0.01 0.01
90°
Apr 18, 12:41 41.84857° -70.33017° 2 min 0.01 0.03
270°
Apr 18, 12:39 41.84857° -70.33015° 8 min 0.01 0.01
42°
Apr 18, 12:31 41.84855° -70.33017° 2 min 0.01 0.03
90°
Apr 18, 12:29 41.84855° -70.33019° 8 min 0.01 0.01
304°
Apr 18, 12:21 41.84854° -70.33017° 2 min 0.01 0.00
Apr 18, 12:19 41.84854° -70.33017° 8 min 0.01 0.01
37°
Apr 18, 12:11 41.84851° -70.33019° 2 min 0.01 0.02
Apr 18, 12:09 41.84850° -70.33019° 8 min 0.01 0.01
180°
Apr 18, 12:01 41.84851° -70.33019° 2 min 0.01 0.00
Apr 18, 11:59 41.84851° -70.33019° 8 min 0.01 0.01
Apr 18, 11:51 41.84850° -70.33019° 2 min 0.01 0.00
Apr 18, 11:49 41.84850° -70.33019° 8 min 0.01 0.01
Apr 18, 11:41 41.84848° -70.33019° 2 min 0.01 0.06
Apr 18, 11:39 41.84845° -70.33019° 8 min 0.01 0.01
217°
Apr 18, 11:31 41.84847° -70.33017° 2 min 0.01 0.00
Apr 18, 11:29 41.84847° -70.33017° 8 min 0.01 0.01
Apr 18, 11:21 41.84845° -70.33017° 2 min 0.01 0.00
Apr 18, 11:19 41.84845° -70.33017° 8 min 0.01 0.00
Apr 18, 11:11 41.84845° -70.33017° 2 min 0.01 0.00
Apr 18, 11:09 41.84845° -70.33017° 8 min 0.01 0.01
Apr 18, 11:01 41.84843° -70.33017° 2 min 0.01 0.00
Apr 18, 10:59 41.84843° -70.33017° 8 min 0.01 0.00
Apr 18, 10:51 41.84843° -70.33017° 2 min 0.01 0.03
180°
Apr 18, 10:49 41.84845° -70.33017° 8 min 0.01 0.01
318°
Apr 18, 10:41 41.84843° -70.33015° 2 min 0.01 0.00
Apr 18, 10:39 41.84843° -70.33015° 8 min 0.01 0.01
Apr 18, 10:31 41.84842° -70.33015° 2 min 0.01 0.00
Apr 18, 10:29 41.84842° -70.33015° 8 min 0.01 0.00
Apr 18, 10:21 41.84842° -70.33015° 2 min 0.01 0.00
Apr 18, 10:19 41.84842° -70.33015° 8 min 0.01 0.00
Apr 18, 10:11 41.84842° -70.33015° 2 min 0.01 0.00
Apr 18, 10:09 41.84842° -70.33015° 8 min 0.01 0.01
124°
Apr 18, 10:01 41.84843° -70.33017° 2 min 0.01 0.04
304°
Apr 18, 09:59 41.84842° -70.33015° 8 min 0.01 0.01
180°
Apr 18, 09:51 41.84843° -70.33015° 2 min 0.01 0.00
Apr 18, 09:49 41.84843° -70.33015° 8 min 0.01 0.01
138°
Apr 18, 09:41 41.84845° -70.33017° 2 min 0.01 0.03
270°
Apr 18, 09:39 41.84845° -70.33015° 8 min 0.01 0.01
90°
Apr 18, 09:31 41.84845° -70.33017° 2 min 0.01 0.03
270°
Apr 18, 09:29 41.84845° -70.33015° 8 min 0.01 0.01
90°
Apr 18, 09:21 41.84845° -70.33017° 2 min 0.01 0.00
Apr 18, 09:19 41.84845° -70.33017° 8 min 0.01 0.00
Apr 18, 09:11 41.84845° -70.33017° 2 min 0.01 0.00
Apr 18, 09:09 41.84845° -70.33017° 7 min 0.01 0.01
Apr 18, 09:01 41.84843° -70.33017° 2 min 0.01 0.00
Apr 18, 08:59 41.84843° -70.33017° 8 min 0.01 0.00
Apr 18, 08:51 41.84843° -70.33017° 2 min 0.01 0.03
270°
Apr 18, 08:49 41.84843° -70.33015° 8 min 0.01 0.01
90°
Apr 18, 08:41 41.84843° -70.33017° 2 min 0.01 0.00
Apr 18, 08:39 41.84843° -70.33017° 8 min 0.01 0.01
270°
Apr 18, 08:31 41.84843° -70.33015° 2 min 0.01 0.03
90°
Apr 18, 08:29 41.84843° -70.33017° 8 min 0.01 0.01
180°
Apr 18, 08:21 41.84845° -70.33017° 2 min 0.01 0.05
318°
Apr 18, 08:19 41.84843° -70.33015° 8 min 0.01 0.01
90°
Apr 18, 08:11 41.84843° -70.33017° 2 min 0.01 0.00
Apr 18, 08:09 41.84843° -70.33017° 8 min 0.01 0.01
180°
Apr 18, 08:01 41.84845° -70.33017° 2 min 0.01 0.00
Apr 18, 07:59 41.84845° -70.33017° 8 min 0.01 0.01
217°
Apr 18, 07:51 41.84847° -70.33015° 2 min 0.01 0.03
90°
Apr 18, 07:49 41.84847° -70.33017° 8 min 0.01 0.01
323°
Apr 18, 07:41 41.84845° -70.33015° 2 min 0.01 0.00
Apr 18, 07:39 41.84845° -70.33015° 8 min 0.01 0.02
124°
Apr 18, 07:31 41.84847° -70.33019° 2 min 0.01 0.03
270°
Apr 18, 07:29 41.84847° -70.33017° 8 min 0.01 0.00
Apr 18, 07:21 41.84847° -70.33017° 2 min 0.01 0.00
Apr 18, 07:19 41.84847° -70.33017° 8 min 0.01 0.01
Apr 18, 07:11 41.84845° -70.33017° 2 min 0.01 0.00
Apr 18, 07:09 41.84845° -70.33017° 8 min 0.01 0.01
270°
Apr 18, 07:01 41.84845° -70.33015° 2 min 0.01 0.00
Apr 18, 06:59 41.84845° -70.33015° 8 min 0.01 0.02
154°
Apr 18, 06:51 41.84848° -70.33017° 2 min 0.01 0.04
304°
Apr 18, 06:49 41.84847° -70.33015° 8 min 0.01 0.02
151°
Apr 18, 06:41 41.84850° -70.33017° 2 min 0.01 0.00
Apr 18, 06:39 41.84850° -70.33017° 8 min 0.01 0.02
206°
Apr 18, 06:31 41.84854° -70.33015° 2 min 0.01 0.00
Apr 18, 06:29 41.84854° -70.33015° 8 min 0.01 0.02
209°
Apr 18, 06:21 41.84857° -70.33012° 2 min 0.01 0.00
Apr 18, 06:19 41.84857° -70.33012° 8 min 0.01 0.02
180°
Apr 18, 06:11 41.84860° -70.33012° 2 min 0.01 0.03
270°
Apr 18, 06:09 41.84860° -70.33010° 38 min 0.01 0.01
215°
Apr 18, 05:31 41.84867° -70.33004° 30 min 0.01 0.00
222°
Apr 18, 05:01 41.84869° -70.33002° 20 min 0.01 0.00
180°
Apr 18, 04:41 41.84870° -70.33002° 2 min 0.01 0.00
Apr 18, 04:39 41.84870° -70.33002° 8 min 0.01 0.00
Apr 18, 04:31 41.84870° -70.33002° 2 min 0.01 0.00
Apr 18, 04:29 41.84870° -70.33002° 8 min 0.01 0.01
Apr 18, 04:21 41.84869° -70.33002° 2 min 0.01 0.03
90°
Apr 18, 04:19 41.84869° -70.33004° 8 min 0.01 0.00
Apr 18, 04:11 41.84869° -70.33004° 2 min 0.01 0.00
Apr 18, 04:09 41.84869° -70.33004° 8 min 0.01 0.01
124°
Apr 18, 04:01 41.84870° -70.33006° 2 min 0.01 0.02
Apr 18, 03:59 41.84869° -70.33006° 8 min 0.01 0.00
Apr 18, 03:51 41.84869° -70.33006° 2 min 0.01 0.00
Apr 18, 03:49 41.84869° -70.33006° 8 min 0.01 0.00
Apr 18, 03:41 41.84869° -70.33006° 1 min 0.01 0.03
Apr 18, 03:39 41.84867° -70.33006° 8 min 0.01 0.01
149°
Apr 18, 03:31 41.84869° -70.33008° 2 min 0.01 0.03
Apr 18, 03:29 41.84867° -70.33008° 8 min 0.01 0.01
270°
Apr 18, 03:21 41.84867° -70.33006° 2 min 0.01 0.02
Apr 18, 03:19 41.84866° -70.33006° 8 min 0.01 0.00
Apr 18, 03:11 41.84866° -70.33006° 2 min 0.01 0.00
Apr 18, 03:09 41.84866° -70.33006° 8 min 0.01 0.01
180°
Apr 18, 03:01 41.84869° -70.33006° 2 min 0.01 0.02
90°
Apr 18, 02:59 41.84869° -70.33008° 8 min 0.01 0.01
270°
Apr 18, 02:51 41.84869° -70.33006° 2 min 0.01 0.00
Apr 18, 02:49 41.84869° -70.33006° 8 min 0.01 0.01
31°
Apr 18, 02:41 41.84867° -70.33008° 2 min 0.01 0.00
Apr 18, 02:39 41.84867° -70.33008° 8 min 0.01 0.00
Apr 18, 02:31 41.84867° -70.33008° 2 min 0.01 0.02
Apr 18, 02:29 41.84866° -70.33008° 8 min 0.01 0.00
Apr 18, 02:21 41.84866° -70.33008° 2 min 0.01 0.00
Apr 18, 02:19 41.84866° -70.33008° 8 min 0.01 0.00
Apr 18, 02:11 41.84866° -70.33008° 2 min 0.01 0.00
Apr 18, 02:09 41.84866° -70.33008° 8 min 0.01 0.02
56°
Apr 18, 02:01 41.84863° -70.33012° 2 min 0.01 0.00
Apr 18, 01:59 41.84863° -70.33012° 8 min 0.01 0.01
270°
Apr 18, 01:51 41.84863° -70.33010° 2 min 0.01 0.00
Apr 18, 01:49 41.84863° -70.33010° 8 min 0.01 0.01
90°
Apr 18, 01:41 41.84863° -70.33012° 2 min 0.01 0.00
Apr 18, 01:39 41.84863° -70.33012° 8 min 0.01 0.01
Apr 18, 01:31 41.84862° -70.33012° 2 min 0.01 0.02
180°
Apr 18, 01:29 41.84863° -70.33012° 8 min 0.01 0.01
304°
Apr 18, 01:21 41.84862° -70.33010° 2 min 0.01 0.04
124°
Apr 18, 01:19 41.84863° -70.33012° 8 min 0.01 0.01
180°
Apr 18, 01:11 41.84866° -70.33012° 2 min 0.01 0.06
Apr 18, 01:09 41.84862° -70.33012° 8 min 0.01 0.01
236°
Apr 18, 01:01 41.84863° -70.33010° 2 min 0.01 0.04
56°
Apr 18, 00:59 41.84862° -70.33012° 8 min 0.01 0.00
Apr 18, 00:51 41.84862° -70.33012° 2 min 0.01 0.02
180°
Apr 18, 00:49 41.84863° -70.33012° 8 min 0.01 0.01
56°
Apr 18, 00:41 41.84862° -70.33015° 2 min 0.01 0.03
270°
Apr 18, 00:39 41.84862° -70.33012° 8 min 0.01 0.00
Apr 18, 00:31 41.84862° -70.33012° 2 min 0.01 0.00
Apr 18, 00:29 41.84862° -70.33012° 8 min 0.01 0.01
Apr 18, 00:21 41.84860° -70.33012° 2 min 0.01 0.00
Apr 18, 00:19 41.84860° -70.33012° 8 min 0.01 0.01
Apr 18, 00:11 41.84858° -70.33012° 2 min 0.01 0.04
180°
Apr 18, 00:09 41.84860° -70.33012° 8 min 0.01 0.00
Apr 18, 00:01 41.84860° -70.33012° 2 min 0.01 0.00
Apr 17, 23:59 41.84860° -70.33012° 8 min 0.01 0.00
Apr 17, 23:51 41.84860° -70.33012° 2 min 0.01 0.00
Apr 17, 23:49 41.84860° -70.33012° 8 min 0.01 0.01
222°
Apr 17, 23:41 41.84862° -70.33010° 2 min 0.01 0.05
42°
Apr 17, 23:39 41.84860° -70.33012° 8 min 0.01 0.01
270°
Apr 17, 23:31 41.84860° -70.33010° 2 min 0.01 0.03
180°
Apr 17, 23:29 41.84862° -70.33010° 8 min 0.01 0.01
42°
Apr 17, 23:21 41.84860° -70.33012° 2 min 0.01 0.00
Apr 17, 23:19 41.84860° -70.33012° 8 min 0.01 0.00
Apr 17, 23:11 41.84860° -70.33012° 2 min 0.01 0.00
Apr 17, 23:09 41.84860° -70.33012° 8 min 0.01 0.00
Apr 17, 23:01 41.84860° -70.33012° 2 min 0.01 0.00
Apr 17, 22:59 41.84860° -70.33012° 8 min 0.01 0.01
37°
Apr 17, 22:51 41.84858° -70.33015° 2 min 0.01 0.00
Apr 17, 22:49 41.84858° -70.33015° 8 min 0.01 0.01
270°
Apr 17, 22:41 41.84858° -70.33012° 2 min 0.01 0.03
270°
Apr 17, 22:39 41.84858° -70.33010° 8 min 0.01 0.02
48°
Apr 17, 22:31 41.84855° -70.33015° 2 min 0.01 0.00
Apr 17, 22:29 41.84855° -70.33015° 8 min 0.01 0.02
334°
Apr 17, 22:21 41.84851° -70.33012° 1 min 0.01 0.00
Apr 17, 22:19 41.84851° -70.33012° 8 min 0.01 0.01
Apr 17, 22:11 41.84850° -70.33012° 2 min 0.01 0.03
90°
Apr 17, 22:09 41.84850° -70.33015° 8 min 0.01 0.01
180°
Apr 17, 22:01 41.84851° -70.33015° 2 min 0.01 0.03
270°
Apr 17, 21:59 41.84851° -70.33012° 8 min 0.01 0.01
90°
Apr 17, 21:51 41.84851° -70.33015° 2 min 0.01 0.03
270°
Apr 17, 21:49 41.84851° -70.33012° 8 min 0.01 0.01
Apr 17, 21:41 41.84848° -70.33012° 2 min 0.01 0.04
304°
Apr 17, 21:39 41.84847° -70.33010° 8 min 0.00 0.01
Apr 17, 21:31 41.84845° -70.33010° 2 min 0.01 0.05
42°
Apr 17, 21:29 41.84843° -70.33012° 8 min 0.01 0.01
90°
Apr 17, 21:21 41.84843° -70.33015° 2 min 0.01 0.00
Apr 17, 21:19 41.84843° -70.33015° 8 min 0.01 0.00
Apr 17, 21:11 41.84843° -70.33015° 2 min 0.01 0.00
Apr 17, 21:09 41.84843° -70.33015° 8 min 0.01 0.00
Apr 17, 21:01 41.84843° -70.33015° 2 min 0.01 0.00
Apr 17, 20:59 41.84843° -70.33015° 8 min 0.01 0.00
Apr 17, 20:51 41.84843° -70.33015° 2 min 0.01 0.02
Apr 17, 20:49 41.84842° -70.33015° 8 min 0.01 0.01
180°
Apr 17, 20:41 41.84843° -70.33015° 2 min 0.01 0.03
180°
Apr 17, 20:39 41.84845° -70.33015° 8 min 0.01 0.00
Apr 17, 20:31 41.84845° -70.33015° 2 min 0.01 0.05
143°
Apr 17, 20:29 41.84847° -70.33017° 8 min 0.01 0.00
Apr 17, 20:21 41.84847° -70.33017° 2 min 0.01 0.03
270°
Apr 17, 20:19 41.84847° -70.33015° 8 min 0.01 0.01
90°
Apr 17, 20:11 41.84847° -70.33017° 2 min 0.01 0.04
Apr 17, 20:09 41.84845° -70.33017° 8 min 0.01 0.01
180°
Apr 17, 20:01 41.84847° -70.33017° 2 min 0.01 0.04
Apr 17, 19:59 41.84845° -70.33017° 8 min 0.01 0.01
318°
Apr 17, 19:51 41.84843° -70.33015° 2 min 0.01 0.03
180°
Apr 17, 19:49 41.84845° -70.33015° 8 min 0.01 0.00
Apr 17, 19:41 41.84845° -70.33015° 2 min 0.01 0.00
Apr 17, 19:39 41.84845° -70.33015° 8 min 0.01 0.00
Apr 17, 19:31 41.84845° -70.33015° 2 min 0.01 0.04
180°
Apr 17, 19:29 41.84847° -70.33015° 8 min 0.01 0.00
Apr 17, 19:21 41.84847° -70.33015° 2 min 0.01 0.00
Apr 17, 19:19 41.84847° -70.33015° 8 min 0.01 0.00
Apr 17, 19:11 41.84847° -70.33015° 2 min 0.01 0.00
Apr 17, 19:09 41.84847° -70.33015° 8 min 0.01 0.00
Apr 17, 19:01 41.84847° -70.33015° 2 min 0.01 0.00
Apr 17, 18:59 41.84847° -70.33015° 8 min 0.01 0.01
Apr 17, 18:51 41.84845° -70.33015° 2 min 0.01 0.00
Apr 17, 18:49 41.84845° -70.33015° 8 min 0.01 0.00
Apr 17, 18:41 41.84845° -70.33015° 2 min 0.01 0.04
180°
Apr 17, 18:39 41.84847° -70.33015° 8 min 0.01 0.00
Apr 17, 18:31 41.84847° -70.33015° 2 min 0.01 0.00
Apr 17, 18:29 41.84847° -70.33015° 8 min 0.01 0.01
180°
Apr 17, 18:21 41.84848° -70.33015° 2 min 0.01 0.03
180°
Apr 17, 18:19 41.84850° -70.33015° 8 min 0.01 0.02
180°
Apr 17, 18:11 41.84854° -70.33015° 1 min 0.01 0.03
90°
Apr 17, 18:09 41.84854° -70.33017° 8 min 0.01 0.01
270°
Apr 17, 18:01 41.84854° -70.33015° 1 min 0.01 0.02
180°
Apr 17, 17:59 41.84855° -70.33015° 8 min 0.01 0.00
Apr 17, 17:51 41.84855° -70.33015° 1 min 0.01 0.06
180°
Apr 17, 17:49 41.84858° -70.33015° 8 min 0.01 0.01
217°
Apr 17, 17:41 41.84860° -70.33012° 2 min 0.01 0.03
180°
Apr 17, 17:39 41.84862° -70.33012° 8 min 0.01 0.01
270°
Apr 17, 17:31 41.84862° -70.33010° 2 min 0.01 0.00
Apr 17, 17:29 41.84862° -70.33010° 8 min 0.01 0.02
206°
Apr 17, 17:21 41.84866° -70.33008° 2 min 0.01 0.04
Apr 17, 17:19 41.84863° -70.33008° 8 min 0.01 0.02
198°
Apr 17, 17:11 41.84867° -70.33006° 2 min 0.01 0.03
180°
Apr 17, 17:09 41.84869° -70.33006° 8 min 0.01 0.00
Apr 17, 17:01 41.84869° -70.33006° 2 min 0.01 0.00
Apr 17, 16:59 41.84869° -70.33006° 8 min 0.01 0.00
Apr 17, 16:51 41.84869° -70.33006° 2 min 0.01 0.00
Apr 17, 16:49 41.84869° -70.33006° 8 min 0.01 0.01
180°
Apr 17, 16:41 41.84870° -70.33006° 2 min 0.01 0.00
Apr 17, 16:39 41.84870° -70.33006° 8 min 0.01 0.00
Apr 17, 16:31 41.84870° -70.33006° 2 min 0.01 0.00
Apr 17, 16:29 41.84870° -70.33006° 8 min 0.01 0.01
45°
Apr 17, 16:21 41.84869° -70.33008° 2 min 0.01 0.00
Apr 17, 16:19 41.84869° -70.33008° 8 min 0.01 0.01
270°
Apr 17, 16:11 41.84869° -70.33006° 2 min 0.01 0.00
Apr 17, 16:09 41.84869° -70.33006° 8 min 0.01 0.01
Apr 17, 16:01 41.84867° -70.33006° 2 min 0.01 0.00
Apr 17, 15:59 41.84867° -70.33006° 8 min 0.01 0.01
90°
Apr 17, 15:51 41.84867° -70.33008° 2 min 0.01 0.00
Apr 17, 15:49 41.84867° -70.33008° 8 min 0.01 0.01
270°
Apr 17, 15:41 41.84867° -70.33006° 2 min 0.01 0.00
Apr 17, 15:39 41.84867° -70.33006° 8 min 0.01 0.00
Apr 17, 15:31 41.84867° -70.33006° 2 min 0.01 0.02
90°
Apr 17, 15:29 41.84867° -70.33008° 8 min 0.01 0.00
Apr 17, 15:21 41.84867° -70.33008° 2 min 0.01 0.03
180°
Apr 17, 15:19 41.84869° -70.33008° 8 min 0.01 0.01
Apr 17, 15:11 41.84867° -70.33008° 2 min 0.01 0.02
270°
Apr 17, 15:09 41.84867° -70.33006° 8 min 0.01 0.01
90°
Apr 17, 15:01 41.84867° -70.33008° 2 min 0.01 0.07
342°
Apr 17, 14:59 41.84863° -70.33006° 8 min 0.01 0.01
154°
Apr 17, 14:51 41.84866° -70.33008° 2 min 0.01 0.00
Apr 17, 14:49 41.84866° -70.33008° 8 min 0.01 0.00
Apr 17, 14:41 41.84866° -70.33008° 2 min 0.01 0.00
Apr 17, 14:39 41.84866° -70.33008° 8 min 0.01 0.00
Apr 17, 14:31 41.84866° -70.33008° 2 min 0.01 0.00
Apr 17, 14:29 41.84866° -70.33008° 8 min 0.01 0.00
Apr 17, 14:21 41.84866° -70.33008° 2 min 0.01 0.02
270°
Apr 17, 14:19 41.84866° -70.33006° 8 min 0.01 0.01
180°
Apr 17, 14:11 41.84867° -70.33006° 2 min 0.01 0.03
45°
Apr 17, 14:09 41.84866° -70.33008° 8 min 0.01 0.01
90°
Apr 17, 14:01 41.84866° -70.33010° 2 min 0.01 0.04
Apr 17, 13:59 41.84863° -70.33010° 8 min 0.01 0.00
Apr 17, 13:51 41.84863° -70.33010° 2 min 0.01 0.04
180°
Apr 17, 13:49 41.84866° -70.33010° 8 min 0.01 0.01
Apr 17, 13:41 41.84863° -70.33010° 1 min 0.01 0.00
Apr 17, 13:39 41.84863° -70.33010° 8 min 0.01 0.00
Apr 17, 13:31 41.84863° -70.33010° 2 min 0.01 0.04
180°
Apr 17, 13:29 41.84866° -70.33010° 8 min 0.01 0.02
26°
Apr 17, 13:21 41.84862° -70.33012° 2 min 0.01 0.02
180°
Apr 17, 13:19 41.84863° -70.33012° 8 min 0.01 0.01
Apr 17, 13:11 41.84862° -70.33012° 2 min 0.01 0.00
Apr 17, 13:09 41.84862° -70.33012° 8 min 0.01 0.01
318°
Apr 17, 13:01 41.84860° -70.33010° 2 min 0.01 0.05
138°
Apr 17, 12:59 41.84862° -70.33012° 8 min 0.01 0.01
Apr 17, 12:51 41.84860° -70.33012° 2 min 0.01 0.03
270°
Apr 17, 12:49 41.84860° -70.33010° 8 min 0.01 0.02
90°
Apr 17, 12:41 41.84860° -70.33015° 2 min 0.01 0.00
Apr 17, 12:39 41.84860° -70.33015° 8 min 0.01 0.02
Apr 17, 12:31 41.84857° -70.33015° 2 min 0.01 0.00
Apr 17, 12:29 41.84857° -70.33015° 8 min 0.01 0.00
Apr 17, 12:21 41.84857° -70.33015° 2 min 0.01 0.00
Apr 17, 12:19 41.84857° -70.33015° 8 min 0.01 0.01
42°
Apr 17, 12:11 41.84855° -70.33017° 2 min 0.01 0.03
270°
Apr 17, 12:09 41.84855° -70.33015° 8 min 0.01 0.01
90°
Apr 17, 12:01 41.84855° -70.33017° 2 min 0.01 0.03
270°
Apr 17, 11:59 41.84855° -70.33015° 8 min 0.01 0.00
Apr 17, 11:51 41.84855° -70.33015° 2 min 0.01 0.03
90°
Apr 17, 11:49 41.84855° -70.33017° 8 min 0.01 0.01
270°
Apr 17, 11:41 41.84855° -70.33015° 2 min 0.01 0.04
56°
Apr 17, 11:39 41.84854° -70.33017° 8 min 0.01 0.01
Apr 17, 11:31 41.84851° -70.33017° 2 min 0.01 0.04
304°
Apr 17, 11:29 41.84850° -70.33015° 8 min 0.01 0.01
180°
Apr 17, 11:21 41.84851° -70.33015° 2 min 0.01 0.04
56°
Apr 17, 11:19 41.84850° -70.33017° 8 min 0.01 0.01
Apr 17, 11:11 41.84848° -70.33017° 2 min 0.01 0.03
180°
Apr 17, 11:09 41.84850° -70.33017° 8 min 0.01 0.01
Apr 17, 11:01 41.84848° -70.33017° 2 min 0.01 0.00
Apr 17, 10:59 41.84848° -70.33017° 8 min 0.01 0.01
270°
Apr 17, 10:51 41.84848° -70.33015° 2 min 0.01 0.04
56°
Apr 17, 10:49 41.84847° -70.33017° 8 min 0.01 0.01
270°
Apr 17, 10:41 41.84847° -70.33015° 2 min 0.01 0.00
Apr 17, 10:39 41.84847° -70.33015° 8 min 0.01 0.02
Apr 17, 10:31 41.84843° -70.33015° 2 min 0.01 0.00
Apr 17, 10:29 41.84843° -70.33015° 8 min 0.01 0.00
Apr 17, 10:21 41.84843° -70.33015° 2 min 0.01 0.04
56°
Apr 17, 10:19 41.84842° -70.33017° 8 min 0.01 0.01
270°
Apr 17, 10:11 41.84842° -70.33015° 2 min 0.01 0.03
270°
Apr 17, 10:09 41.84842° -70.33012° 8 min 0.01 0.00
Apr 17, 10:01 41.84842° -70.33012° 2 min 0.01 0.03
90°
Apr 17, 09:59 41.84842° -70.33015° 8 min 0.01 0.01
323°
Apr 17, 09:51 41.84840° -70.33012° 2 min 0.01 0.02
Apr 17, 09:49 41.84838° -70.33012° 8 min 0.01 0.01
270°
Apr 17, 09:41 41.84838° -70.33010° 2 min 0.01 0.00
Apr 17, 09:39 41.84838° -70.33010° 8 min 0.01 0.01
Apr 17, 09:31 41.84837° -70.33010° 2 min 0.01 0.00
Apr 17, 09:29 41.84837° -70.33010° 8 min 0.01 0.00
Apr 17, 09:21 41.84837° -70.33010° 2 min 0.01 0.03
180°
Apr 17, 09:19 41.84838° -70.33010° 8 min 0.01 0.01
318°
Apr 17, 09:11 41.84837° -70.33008° 2 min 0.01 0.03
180°
Apr 17, 09:09 41.84838° -70.33008° 8 min 0.01 0.01
42°
Apr 17, 09:01 41.84837° -70.33010° 2 min 0.01 0.00
Apr 17, 08:59 41.84837° -70.33010° 8 min 0.01 0.01
180°
Apr 17, 08:51 41.84838° -70.33010° 2 min 0.01 0.00
Apr 17, 08:49 41.84838° -70.33010° 8 min 0.01 0.01
Apr 17, 08:41 41.84837° -70.33010° 2 min 0.01 0.03
270°
Apr 17, 08:39 41.84837° -70.33008° 8 min 0.01 0.00
Apr 17, 08:31 41.84837° -70.33008° 2 min 0.01 0.03
90°
Apr 17, 08:29 41.84837° -70.33010° 8 min 0.01 0.01
270°
Apr 17, 08:21 41.84837° -70.33008° 1 min 0.01 0.00
Apr 17, 08:19 41.84837° -70.33008° 8 min 0.01 0.01
90°
Apr 17, 08:11 41.84837° -70.33010° 2 min 0.01 0.03
270°
Apr 17, 08:09 41.84837° -70.33008° 8 min 0.01 0.00
Apr 17, 08:01 41.84837° -70.33008° 2 min 0.01 0.03
90°
Apr 17, 07:59 41.84837° -70.33010° 8 min 0.01 0.01
270°
Apr 17, 07:51 41.84837° -70.33008° 2 min 0.01 0.00
Apr 17, 07:49 41.84837° -70.33008° 8 min 0.01 0.00
Apr 17, 07:41 41.84837° -70.33008° 2 min 0.01 0.00
Apr 17, 07:39 41.84837° -70.33008° 8 min 0.01 0.01
270°
Apr 17, 07:31 41.84837° -70.33006° 2 min 0.01 0.02
90°
Apr 17, 07:29 41.84837° -70.33008° 8 min 0.01 0.00
Apr 17, 07:21 41.84837° -70.33008° 2 min 0.01 0.00
Apr 17, 07:19 41.84837° -70.33008° 8 min 0.01 0.01
Apr 17, 07:11 41.84835° -70.33008° 2 min 0.01 0.02
180°
Apr 17, 07:09 41.84837° -70.33008° 8 min 0.01 0.01
315°
Apr 17, 07:01 41.84835° -70.33006° 2 min 0.01 0.00
Apr 17, 06:59 41.84835° -70.33006° 8 min 0.01 0.01
135°
Apr 17, 06:51 41.84837° -70.33008° 2 min 0.01 0.02
270°
Apr 17, 06:49 41.84837° -70.33006° 8 min 0.01 0.00
Apr 17, 06:41 41.84837° -70.33006° 2 min 0.01 0.00
Apr 17, 06:39 41.84837° -70.33006° 8 min 0.01 0.01
149°
Apr 17, 06:31 41.84838° -70.33008° 2 min 0.01 0.04
329°
Apr 17, 06:29 41.84837° -70.33006° 8 min 0.01 0.00
Apr 17, 06:21 41.84837° -70.33006° 2 min 0.01 0.00
Apr 17, 06:19 41.84837° -70.33006° 8 min 0.01 0.01
Apr 17, 06:11 41.84835° -70.33006° 2 min 0.01 0.02
180°
Apr 17, 06:09 41.84837° -70.33006° 8 min 0.01 0.01
Apr 17, 06:01 41.84835° -70.33006° 2 min 0.01 0.00
Apr 17, 05:59 41.84835° -70.33006° 8 min 0.01 0.01
90°
Apr 17, 05:51 41.84835° -70.33008° 2 min 0.01 0.02
270°
Apr 17, 05:49 41.84835° -70.33006° 8 min 0.01 0.01
180°
Apr 17, 05:41 41.84837° -70.33006° 2 min 0.01 0.02
Apr 17, 05:39 41.84835° -70.33006° 8 min 0.01 0.00
Apr 17, 05:31 41.84835° -70.33006° 2 min 0.01 0.00
Apr 17, 05:29 41.84835° -70.33006° 8 min 0.01 0.02
270°
Apr 17, 05:21 41.84835° -70.33002° 2 min 0.01 0.00
Apr 17, 05:19 41.84835° -70.33002° 8 min 0.01 0.02
270°
Apr 17, 05:11 41.84835° -70.32996° 2 min 0.01 0.04
Apr 17, 05:09 41.84833° -70.32996° 8 min 0.01 0.01
154°
Apr 17, 05:01 41.84835° -70.32997° 2 min 0.01 0.03
90°
Apr 17, 04:59 41.84835° -70.32999° 8 min 0.01 0.07
174°
Apr 17, 04:51 41.84851° -70.33002° 2 min 0.00 0.07
154°
Apr 17, 04:49 41.84855° -70.33004° 8 min 0.00 0.03
180°
Apr 17, 04:41 41.84862° -70.33004° 2 min 0.01 0.00
Apr 17, 04:39 41.84862° -70.33004° 8 min 0.01 0.01
90°
Apr 17, 04:31 41.84862° -70.33006° 2 min 0.01 0.09
200°
Apr 17, 04:29 41.84867° -70.33004° 8 min 0.01 0.01
270°
Apr 17, 04:21 41.84867° -70.33002° 2 min 0.01 0.03
180°
Apr 17, 04:19 41.84869° -70.33002° 8 min 0.01 0.00
Apr 17, 04:11 41.84869° -70.33002° 2 min 0.01 0.03
90°
Apr 17, 04:09 41.84869° -70.33004° 8 min 0.01 0.01
90°
Apr 17, 04:01 41.84869° -70.33006° 2 min 0.01 0.00
Apr 17, 03:59 41.84869° -70.33006° 8 min 0.01 0.00
Apr 17, 03:51 41.84869° -70.33006° 2 min 0.01 0.00
Apr 17, 03:49 41.84869° -70.33006° 8 min 0.01 0.01
270°
Apr 17, 03:41 41.84869° -70.33004° 2 min 0.01 0.00
Apr 17, 03:39 41.84869° -70.33004° 8 min 0.01 0.01
Apr 17, 03:31 41.84867° -70.33004° 2 min 0.01 0.02
Apr 17, 03:29 41.84866° -70.33004° 8 min 0.01 0.02
270°
Apr 17, 03:21 41.84866° -70.32999° 2 min 0.01 0.05
37°
Apr 17, 03:19 41.84863° -70.33002° 8 min 0.01 0.03
152°
Apr 17, 03:11 41.84870° -70.33006° 2 min 0.01 0.00
Apr 17, 03:09 41.84870° -70.33006° 8 min 0.01 0.00
Apr 17, 03:01 41.84870° -70.33006° 1 min 0.01 0.00
Apr 17, 02:59 41.84870° -70.33006° 8 min 0.01 0.01
Apr 17, 02:51 41.84867° -70.33006° 2 min 0.01 0.00
Apr 17, 02:49 41.84867° -70.33006° 8 min 0.01 0.00
Apr 17, 02:41 41.84867° -70.33006° 2 min 0.01 0.03
180°
Apr 17, 02:39 41.84869° -70.33006° 8 min 0.01 0.00
Apr 17, 02:31 41.84869° -70.33006° 2 min 0.01 0.03
Apr 17, 02:29 41.84867° -70.33006° 8 min 0.01 0.00
Apr 17, 02:21 41.84867° -70.33006° 2 min 0.01 0.00
Apr 17, 02:19 41.84867° -70.33006° 8 min 0.01 0.01
Apr 17, 02:11 41.84866° -70.33006° 2 min 0.01 0.00
Apr 17, 02:09 41.84866° -70.33006° 8 min 0.01 0.01
180°
Apr 17, 02:01 41.84867° -70.33006° 2 min 0.01 0.00
Apr 17, 01:59 41.84867° -70.33006° 8 min 0.01 0.00
Apr 17, 01:51 41.84867° -70.33006° 2 min 0.01 0.00
Apr 17, 01:49 41.84867° -70.33006° 8 min 0.01 0.00
Apr 17, 01:41 41.84867° -70.33006° 2 min 0.01 0.00
Apr 17, 01:39 41.84867° -70.33006° 8 min 0.01 0.00
Apr 17, 01:31 41.84867° -70.33006° 2 min 0.01 0.02
90°
Apr 17, 01:29 41.84867° -70.33008° 8 min 0.01 0.01
180°
Apr 17, 01:21 41.84869° -70.33008° 2 min 0.01 0.03
Apr 17, 01:19 41.84867° -70.33008° 8 min 0.01 0.01
270°
Apr 17, 01:11 41.84867° -70.33006° 2 min 0.01 0.00
Apr 17, 01:09 41.84867° -70.33006° 8 min 0.01 0.00
Apr 17, 01:01 41.84867° -70.33006° 2 min 0.01 0.00
Apr 17, 00:59 41.84867° -70.33006° 8 min 0.01 0.00
Apr 17, 00:51 41.84867° -70.33006° 2 min 0.01 0.00
Apr 17, 00:49 41.84867° -70.33006° 8 min 0.01 0.01
90°
Apr 17, 00:41 41.84867° -70.33008° 2 min 0.01 0.02
270°
Apr 17, 00:39 41.84867° -70.33006° 8 min 0.01 0.01
Apr 17, 00:31 41.84866° -70.33006° 2 min 0.01 0.00
Apr 17, 00:29 41.84866° -70.33006° 8 min 0.01 0.00
Apr 17, 00:21 41.84866° -70.33006° 2 min 0.01 0.02
180°
Apr 17, 00:19 41.84867° -70.33006° 8 min 0.01 0.00
Apr 17, 00:11 41.84867° -70.33006° 2 min 0.01 0.02
Apr 17, 00:09 41.84866° -70.33006° 8 min 0.01 0.00
Apr 17, 00:01 41.84866° -70.33006° 2 min 0.01 0.00
Apr 16, 23:59 41.84866° -70.33006° 8 min 0.01 0.00
Apr 16, 23:51 41.84866° -70.33006° 2 min 0.01 0.00
Apr 16, 23:49 41.84866° -70.33006° 8 min 0.01 0.01
26°
Apr 16, 23:41 41.84863° -70.33008° 2 min 0.01 0.00
Apr 16, 23:39 41.84863° -70.33008° 8 min 0.01 0.00
Apr 16, 23:31 41.84863° -70.33008° 2 min 0.01 0.00
Apr 16, 23:29 41.84863° -70.33008° 8 min 0.01 0.00
Apr 16, 23:21 41.84863° -70.33008° 2 min 0.01 0.02
Apr 16, 23:19 41.84862° -70.33008° 8 min 0.01 0.00
Apr 16, 23:11 41.84862° -70.33008° 2 min 0.01 0.03
90°
Apr 16, 23:09 41.84862° -70.33010° 8 min 0.01 0.00
Apr 16, 23:01 41.84862° -70.33010° 2 min 0.01 0.00
Apr 16, 22:59 41.84862° -70.33010° 8 min 0.01 0.01
90°
Apr 16, 22:51 41.84862° -70.33012° 2 min 0.01 0.00
Apr 16, 22:49 41.84862° -70.33012° 8 min 0.01 0.01
Apr 16, 22:41 41.84860° -70.33012° 2 min 0.01 0.03
90°
Apr 16, 22:39 41.84860° -70.33015° 8 min 0.01 0.02
Apr 16, 22:31 41.84857° -70.33015° 2 min 0.01 0.00
Apr 16, 22:29 41.84857° -70.33015° 8 min 0.01 0.01
Apr 16, 22:21 41.84855° -70.33015° 2 min 0.01 0.02
Apr 16, 22:19 41.84854° -70.33015° 8 min 0.01 0.00
Apr 16, 22:11 41.84854° -70.33015° 1 min 0.01 0.04
Apr 16, 22:09 41.84851° -70.33015° 8 min 0.01 0.01
Apr 16, 22:01 41.84850° -70.33015° 2 min 0.01 0.00
Apr 16, 21:59 41.84850° -70.33015° 8 min 0.01 0.02
Apr 16, 21:51 41.84845° -70.33015° 2 min 0.01 0.04
180°
Apr 16, 21:49 41.84847° -70.33015° 8 min 0.01 0.02
Apr 16, 21:41 41.84843° -70.33015° 2 min 0.01 0.00
Apr 16, 21:39 41.84843° -70.33015° 8 min 0.01 0.02
270°
Apr 16, 21:31 41.84843° -70.33010° 2 min 0.01 0.00
Apr 16, 21:29 41.84843° -70.33010° 8 min 0.01 0.01
304°
Apr 16, 21:21 41.84842° -70.33008° 2 min 0.01 0.02
180°
Apr 16, 21:19 41.84843° -70.33008° 8 min 0.01 0.01
315°
Apr 16, 21:11 41.84842° -70.33006° 2 min 0.01 0.02
90°
Apr 16, 21:09 41.84842° -70.33008° 8 min 0.01 0.01
334°
Apr 16, 21:01 41.84840° -70.33006° 2 min 0.01 0.00
Apr 16, 20:59 41.84840° -70.33006° 8 min 0.01 0.00
Apr 16, 20:51 41.84840° -70.33006° 2 min 0.01 0.03
270°
Apr 16, 20:49 41.84840° -70.33004° 8 min 0.01 0.01
Apr 16, 20:41 41.84838° -70.33004° 2 min 0.01 0.00
Apr 16, 20:39 41.84838° -70.33004° 8 min 0.01 0.00
Apr 16, 20:31 41.84838° -70.33004° 2 min 0.01 0.00
Apr 16, 20:29 41.84838° -70.33004° 8 min 0.01 0.01
Apr 16, 20:21 41.84837° -70.33004° 2 min 0.01 0.03
270°
Apr 16, 20:19 41.84837° -70.33002° 8 min 0.01 0.01
138°
Apr 16, 20:11 41.84838° -70.33004° 2 min 0.01 0.03
Apr 16, 20:09 41.84837° -70.33004° 8 min 0.01 0.00
Apr 16, 20:01 41.84837° -70.33004° 2 min 0.01 0.00
Apr 16, 19:59 41.84837° -70.33004° 8 min 0.01 0.01
90°
Apr 16, 19:51 41.84837° -70.33006° 2 min 0.01 0.03
270°
Apr 16, 19:49 41.84837° -70.33004° 8 min 0.01 0.00
Apr 16, 19:41 41.84837° -70.33004° 2 min 0.01 0.03
270°
Apr 16, 19:39 41.84837° -70.33002° 8 min 0.01 0.00
Apr 16, 19:31 41.84837° -70.33002° 2 min 0.01 0.02
Apr 16, 19:29 41.84835° -70.33002° 8 min 0.01 0.01
236°
Apr 16, 19:21 41.84837° -70.32999° 2 min 0.01 0.00
Apr 16, 19:19 41.84837° -70.32999° 8 min 0.01 0.01
Apr 16, 19:11 41.84835° -70.32999° 2 min 0.01 0.00
Apr 16, 19:09 41.84835° -70.32999° 8 min 0.01 0.00
Apr 16, 19:01 41.84835° -70.32999° 2 min 0.01 0.00
Apr 16, 18:59 41.84835° -70.32999° 8 min 0.01 0.00
Apr 16, 18:51 41.84835° -70.32999° 2 min 0.01 0.00